Flight Track Log - Related Links

Times and Time Zones

All times are in EDT time to prevent confusion due to time zone crossing. See the RPA3869 flight status page for this flight to view local times or setup timezone preferences in your user account.

Time Position Orientation Groundspeed Altitude Reporting Facility
EDT Latitude Longitude Course Direction KTS MPH feet Rate Location/Type
Fri 05:25:57 PM 40.7333 -74.1333 90° East 206 237 2,500  Level New York TRACON
Fri 05:26:57 PM 40.8000 -74.1000 21° North 245 282 3,300 1,150 Climbing New York TRACON
Fri 05:27:57 PM 40.8667 -74.1000 360° North 219 252 4,800 1,350 Climbing New York TRACON
Fri 05:28:00 PM 41.0705 -74.1358 North  Level FlightAware Approximate
Fri 05:28:57 PM 40.9167 -74.1167 346° North 222 255 6,000  Level New York TRACON
Fri 05:29:00 PM 41.1551 -74.1105 74° East  Level FlightAware Approximate
Fri 05:29:57 PM 40.9833 -74.1167 360° North 245 282 6,100  Level New York TRACON
Fri 05:30:00 PM 41.1827 -73.9864 74° East  Level FlightAware Approximate
Fri 05:30:57 PM 41.0333 -74.0833 27° Northeast 264 304 6,100  Level New York TRACON
Fri 05:31:00 PM 41.2000 -73.8680 90° East  Level FlightAware Approximate
Fri 05:33:20 PM 41.1367 -73.8842 55° Northeast 270 311 8,700  Level Boston Center
Fri 05:34:20 PM 41.1794 -73.7914 58° Northeast 275 316 10,400 1,200 Climbing Boston Center
Fri 05:35:20 PM 41.2200 -73.7039 58° Northeast 275 316 11,100 350 Climbing Boston Center
Fri 05:36:20 PM 41.2669 -73.6111 56° Northeast 285 328 11,100 -50 Level Boston Center
Fri 05:37:20 PM 41.3178 -73.5317 50° Northeast 291 335 11,000 -50 Descending Boston Center
Fri 05:38:20 PM 41.3767 -73.4553 44° Northeast 280 322 11,000 100 Level Boston Center
Fri 05:39:20 PM 41.4317 -73.3814 45° Northeast 280 322 11,200 700 Climbing Boston Center
Fri 05:40:20 PM 41.4864 -73.3131 43° Northeast 286 329 12,400 950 Climbing Boston Center
Fri 05:41:20 PM 41.5678 -73.2919 11° North 274 315 13,100 300 Climbing Boston Center
Fri 05:42:20 PM 41.6300 -73.3261 338° Northwest 274 315 13,000 -50 Descending Boston Center
Fri 05:43:20 PM 41.7069 -73.3606 342° North 269 310 13,000  Level Boston Center
Fri 05:44:20 PM 41.7794 -73.3894 343° North 269 310 13,000  Level Boston Center
Fri 05:45:20 PM 41.8542 -73.4211 342° North 269 310 13,000 71 Level Boston Center
Fri 05:45:45 PM 41.8833 -73.4300 347° North 275 316 13,100 -300 Climbing Boston Center
Fri 05:46:20 PM 41.9228 -73.4444 345° North 274 315 12,700 -984 Descending Boston Center
Fri 05:46:46 PM 41.9603 -73.4647 338° Northwest 273 314 12,100 -1,500 Descending Boston Center
Fri 05:47:20 PM 41.9975 -73.4764 347° North 269 310 11,200 -984 Descending Boston Center
Fri 05:47:47 PM 42.0328 -73.4939 340° North 260 299 11,100 -200 Descending Boston Center
Fri 05:48:20 PM 42.0578 -73.5083 337° Northwest 258 297 11,000  Descending Boston Center
Fri 05:48:48 PM 42.0972 -73.5256 342° North 251 289 11,100 100 Climbing Boston Center
Fri 05:49:20 PM 42.1303 -73.5542 327° Northwest 258 297 11,100  Level Boston Center
Fri 05:49:48 PM 42.1592 -73.5689 339° North 263 303 11,100 -300 Level Boston Center
Fri 05:50:20 PM 42.1967 -73.5919 336° Northwest 252 290 10,800 -689 Descending Boston Center
Fri 05:50:49 PM 42.2278 -73.6064 341° North 263 303 10,400 -1,071 Descending Boston Center
Fri 05:51:44 PM 42.2836 -73.6356 339° North 242 278 9,300 -1,513 Descending Boston Center
Fri 05:52:44 PM 42.3436 -73.6733 335° Northwest 226 260 7,500 -1,785 Descending Boston Center
Fri 05:53:45 PM 42.4017 -73.7081 336° Northwest 222 255 5,700 -1,190 Descending Boston Center
Fri 05:54:45 PM 42.4597 -73.7431 336° Northwest 235 270 5,100 -645 Descending Boston Center
Fri 05:55:46 PM 42.5175 -73.7753 338° Northwest 209 241 4,400 -836 Descending Boston Center
Fri 05:56:47 PM 42.5653 -73.7989 340° North 176 203 3,400 -797 Descending Boston Center
Fri 05:57:54 PM 42.6214 -73.8000 359° North 181 208 2,700 -803 Descending Boston Center
Fri 05:58:54 PM 42.6694 -73.8039 357° North 175 201 1,700 -1,000 Descending Boston Center

Login

Don't have an account? Register now (free) for customized features, flight alerts, and more!